首页
METAR-TAF:

METAR-TAF

机场 :

Centralia Municipal Airport

Centralia, 伊利诺伊州, 美国

纬度: 38-30-53N, 经度: 089-05-32W, 海拔: 163米

当前天气观测

该预报发布于18分钟前的02:55 UTC
风速7节,风向
温度 1°C
湿度 64%
气压 1022 hPa
能見度: 16.1公里
多云层高于4800英尺
阴天层高于6000英尺

METAR: KENL 230255Z AUTO 17007KT 10SM BKN048 OVC060 01/M05 A3019 RMK AO2 T00101049

时间: 21:13 (03:13 UTC)


TAF: 丢失

超过4000个机场的气象观测和天气预报(METAR&TAF报告)。

可查询的气象台以黄色和红色小点在地图上表示。

将鼠标移到小点上方,可查看气象台名称。

然后点击查看天气观测和预报。

如需切换地图:点击带黑十字的绿色按钮放大地图;点击带横线的绿色按钮缩小地图;或者点击绿色箭头查看邻近地区的地图。


METAR-TAF: